Wren, Ohio
Current Conditions -  °F | °C
As of 12:54 PM on Sunday 21 Dec 2014 (Local Time) from KFWA Reporting Station
Haze Haze  
Wind Chill: 28°   Ceiling: 5500
Heat Index: 34°   Visibility: 5mi
Dew Point: 25°   Wind: 7mph
Humidity: 70%   Direction: 180°S
Pressure: 30.24"   Gusts: NA
Location:  40.8°N, 84.78°W
Report Text: KFWA 211754Z 18006KT 5SM HZ OVC055 01/M04 A3024 RMK AO2 SLP248 T00111039 10011 21017 58021
Loading
Personal Weather Stations






























Interactive Weather Map New forecast layout! Learn more

10-Day Weather Forecast

Advertisements
Track Severe Weather on mobile